sensor_id;sensor_type;location;lat;lon;timestamp;P1;durP1;ratioP1;P2;durP2;ratioP2
12762;SDS011;6445;52.490;13.378;2023-05-16T00:00:38;10.60;;;7.72;;
12762;SDS011;6445;52.490;13.378;2023-05-16T00:03:04;8.45;;;7.57;;
12762;SDS011;6445;52.490;13.378;2023-05-16T00:05:30;9.75;;;8.65;;
12762;SDS011;6445;52.490;13.378;2023-05-16T00:07:55;8.23;;;7.43;;
12762;SDS011;6445;52.490;13.378;2023-05-16T00:10:20;9.57;;;8.20;;
12762;SDS011;6445;52.490;13.378;2023-05-16T00:12:46;8.55;;;7.63;;
12762;SDS011;6445;52.490;13.378;2023-05-16T00:15:15;9.40;;;8.32;;
12762;SDS011;6445;52.490;13.378;2023-05-16T00:17:42;10.35;;;8.50;;
12762;SDS011;6445;52.490;13.378;2023-05-16T00:20:10;14.13;;;9.18;;
12762;SDS011;6445;52.490;13.378;2023-05-16T00:22:38;9.85;;;8.52;;
12762;SDS011;6445;52.490;13.378;2023-05-16T00:25:03;10.15;;;8.73;;
12762;SDS011;6445;52.490;13.378;2023-05-16T00:27:28;13.52;;;9.10;;
12762;SDS011;6445;52.490;13.378;2023-05-16T00:29:54;10.25;;;9.15;;
12762;SDS011;6445;52.490;13.378;2023-05-16T00:32:20;9.85;;;8.57;;
12762;SDS011;6445;52.490;13.378;2023-05-16T00:34:45;11.27;;;8.93;;
12762;SDS011;6445;52.490;13.378;2023-05-16T00:37:10;11.30;;;9.48;;
12762;SDS011;6445;52.490;13.378;2023-05-16T00:39:35;12.65;;;10.02;;
12762;SDS011;6445;52.490;13.378;2023-05-16T00:42:01;10.90;;;9.80;;
12762;SDS011;6445;52.490;13.378;2023-05-16T00:44:26;10.50;;;9.40;;
12762;SDS011;6445;52.490;13.378;2023-05-16T00:46:52;10.65;;;9.45;;
12762;SDS011;6445;52.490;13.378;2023-05-16T00:49:18;12.25;;;10.70;;
12762;SDS011;6445;52.490;13.378;2023-05-16T00:51:43;12.25;;;10.85;;
12762;SDS011;6445;52.490;13.378;2023-05-16T00:54:08;12.10;;;10.85;;
12762;SDS011;6445;52.490;13.378;2023-05-16T00:56:34;13.18;;;10.88;;
12762;SDS011;6445;52.490;13.378;2023-05-16T00:59:00;13.48;;;10.98;;
12762;SDS011;6445;52.490;13.378;2023-05-16T01:01:26;13.90;;;11.93;;
12762;SDS011;6445;52.490;13.378;2023-05-16T01:03:52;13.18;;;11.85;;
12762;SDS011;6445;52.490;13.378;2023-05-16T01:06:17;13.50;;;12.13;;
12762;SDS011;6445;52.490;13.378;2023-05-16T01:08:43;16.00;;;12.73;;
12762;SDS011;6445;52.490;13.378;2023-05-16T01:11:23;16.13;;;13.00;;
12762;SDS011;6445;52.490;13.378;2023-05-16T01:16:32;14.38;;;12.82;;
12762;SDS011;6445;52.490;13.378;2023-05-16T01:19:03;18.00;;;13.70;;
12762;SDS011;6445;52.490;13.378;2023-05-16T01:24:33;18.75;;;14.55;;
12762;SDS011;6445;52.490;13.378;2023-05-16T01:27:07;17.25;;;14.05;;
12762;SDS011;6445;52.490;13.378;2023-05-16T01:29:35;22.48;;;15.38;;
12762;SDS011;6445;52.490;13.378;2023-05-16T01:32:00;20.92;;;15.60;;
12762;SDS011;6445;52.490;13.378;2023-05-16T01:34:25;17.02;;;14.90;;
12762;SDS011;6445;52.490;13.378;2023-05-16T01:37:03;21.02;;;14.98;;
12762;SDS011;6445;52.490;13.378;2023-05-16T01:39:43;18.92;;;14.63;;
12762;SDS011;6445;52.490;13.378;2023-05-16T01:42:15;20.05;;;13.85;;
12762;SDS011;6445;52.490;13.378;2023-05-16T01:44:47;20.33;;;14.15;;
12762;SDS011;6445;52.490;13.378;2023-05-16T01:47:20;15.85;;;14.07;;
12762;SDS011;6445;52.490;13.378;2023-05-16T01:55:23;17.30;;;14.55;;
12762;SDS011;6445;52.490;13.378;2023-05-16T01:57:57;17.65;;;14.10;;
12762;SDS011;6445;52.490;13.378;2023-05-16T02:00:23;19.88;;;14.30;;
12762;SDS011;6445;52.490;13.378;2023-05-16T02:02:48;26.60;;;14.50;;
12762;SDS011;6445;52.490;13.378;2023-05-16T02:05:13;17.60;;;14.07;;
12762;SDS011;6445;52.490;13.378;2023-05-16T02:07:39;15.00;;;13.43;;
12762;SDS011;6445;52.490;13.378;2023-05-16T02:10:05;16.45;;;13.95;;
12762;SDS011;6445;52.490;13.378;2023-05-16T02:12:31;17.42;;;13.80;;
12762;SDS011;6445;52.490;13.378;2023-05-16T02:14:56;17.13;;;13.38;;
12762;SDS011;6445;52.490;13.378;2023-05-16T02:17:21;20.45;;;14.63;;
12762;SDS011;6445;52.490;13.378;2023-05-16T02:19:47;18.83;;;13.30;;
12762;SDS011;6445;52.490;13.378;2023-05-16T02:22:12;15.50;;;12.95;;
12762;SDS011;6445;52.490;13.378;2023-05-16T02:24:37;18.33;;;13.35;;
12762;SDS011;6445;52.490;13.378;2023-05-16T02:27:02;15.70;;;13.30;;
12762;SDS011;6445;52.490;13.378;2023-05-16T02:29:28;18.88;;;13.90;;
12762;SDS011;6445;52.490;13.378;2023-05-16T02:31:53;15.00;;;13.07;;
12762;SDS011;6445;52.490;13.378;2023-05-16T02:34:18;19.40;;;12.88;;
12762;SDS011;6445;52.490;13.378;2023-05-16T02:36:44;16.38;;;12.82;;
12762;SDS011;6445;52.490;13.378;2023-05-16T02:39:09;17.88;;;13.63;;
12762;SDS011;6445;52.490;13.378;2023-05-16T02:41:35;19.90;;;13.70;;
12762;SDS011;6445;52.490;13.378;2023-05-16T02:44:00;17.30;;;14.05;;
12762;SDS011;6445;52.490;13.378;2023-05-16T02:46:26;14.88;;;12.77;;
12762;SDS011;6445;52.490;13.378;2023-05-16T02:48:55;17.05;;;13.98;;
12762;SDS011;6445;52.490;13.378;2023-05-16T02:51:23;17.98;;;13.25;;
12762;SDS011;6445;52.490;13.378;2023-05-16T02:53:49;19.50;;;13.98;;
12762;SDS011;6445;52.490;13.378;2023-05-16T02:56:16;17.48;;;13.95;;
12762;SDS011;6445;52.490;13.378;2023-05-16T02:58:41;17.08;;;13.90;;
12762;SDS011;6445;52.490;13.378;2023-05-16T03:01:07;15.32;;;13.68;;
12762;SDS011;6445;52.490;13.378;2023-05-16T03:03:33;18.83;;;14.20;;
12762;SDS011;6445;52.490;13.378;2023-05-16T03:06:00;18.05;;;14.63;;
12762;SDS011;6445;52.490;13.378;2023-05-16T03:08:25;17.67;;;15.10;;
12762;SDS011;6445;52.490;13.378;2023-05-16T03:10:50;16.42;;;14.50;;
12762;SDS011;6445;52.490;13.378;2023-05-16T03:13:16;23.15;;;15.10;;
12762;SDS011;6445;52.490;13.378;2023-05-16T03:15:41;17.65;;;14.88;;
12762;SDS011;6445;52.490;13.378;2023-05-16T03:18:06;18.67;;;14.00;;
12762;SDS011;6445;52.490;13.378;2023-05-16T03:20:32;18.88;;;14.95;;
12762;SDS011;6445;52.490;13.378;2023-05-16T03:22:57;19.48;;;14.65;;
12762;SDS011;6445;52.490;13.378;2023-05-16T03:25:22;20.67;;;15.48;;
12762;SDS011;6445;52.490;13.378;2023-05-16T03:27:48;19.65;;;16.17;;
12762;SDS011;6445;52.490;13.378;2023-05-16T03:30:13;19.08;;;16.42;;
12762;SDS011;6445;52.490;13.378;2023-05-16T03:32:39;20.02;;;15.57;;
12762;SDS011;6445;52.490;13.378;2023-05-16T03:35:05;25.02;;;16.27;;
12762;SDS011;6445;52.490;13.378;2023-05-16T03:37:30;21.70;;;16.05;;
12762;SDS011;6445;52.490;13.378;2023-05-16T03:39:55;20.77;;;15.88;;
12762;SDS011;6445;52.490;13.378;2023-05-16T03:42:21;21.33;;;16.60;;
12762;SDS011;6445;52.490;13.378;2023-05-16T03:44:46;22.33;;;15.95;;
12762;SDS011;6445;52.490;13.378;2023-05-16T03:47:11;22.27;;;16.77;;
12762;SDS011;6445;52.490;13.378;2023-05-16T03:49:36;20.05;;;15.93;;
12762;SDS011;6445;52.490;13.378;2023-05-16T03:52:03;18.92;;;15.50;;
12762;SDS011;6445;52.490;13.378;2023-05-16T03:54:28;23.85;;;17.13;;
12762;SDS011;6445;52.490;13.378;2023-05-16T03:56:54;22.42;;;16.65;;
12762;SDS011;6445;52.490;13.378;2023-05-16T03:59:19;19.02;;;16.70;;
12762;SDS011;6445;52.490;13.378;2023-05-16T04:01:44;19.60;;;16.77;;
12762;SDS011;6445;52.490;13.378;2023-05-16T04:04:09;22.73;;;18.40;;
12762;SDS011;6445;52.490;13.378;2023-05-16T04:06:35;23.13;;;17.27;;
12762;SDS011;6445;52.490;13.378;2023-05-16T04:09:00;28.40;;;17.75;;
12762;SDS011;6445;52.490;13.378;2023-05-16T04:11:25;22.73;;;18.35;;
12762;SDS011;6445;52.490;13.378;2023-05-16T04:13:51;23.13;;;17.85;;
12762;SDS011;6445;52.490;13.378;2023-05-16T04:16:17;24.15;;;18.35;;
12762;SDS011;6445;52.490;13.378;2023-05-16T04:18:43;25.15;;;17.75;;
12762;SDS011;6445;52.490;13.378;2023-05-16T04:21:08;22.95;;;17.20;;
12762;SDS011;6445;52.490;13.378;2023-05-16T04:23:35;21.08;;;17.67;;
12762;SDS011;6445;52.490;13.378;2023-05-16T04:26:00;25.27;;;17.08;;
12762;SDS011;6445;52.490;13.378;2023-05-16T04:28:26;19.55;;;15.88;;
12762;SDS011;6445;52.490;13.378;2023-05-16T04:30:51;21.98;;;17.70;;
12762;SDS011;6445;52.490;13.378;2023-05-16T04:33:17;23.17;;;17.00;;
12762;SDS011;6445;52.490;13.378;2023-05-16T04:35:42;23.15;;;16.35;;
12762;SDS011;6445;52.490;13.378;2023-05-16T04:38:08;22.67;;;17.23;;
12762;SDS011;6445;52.490;13.378;2023-05-16T04:40:33;24.90;;;16.90;;
12762;SDS011;6445;52.490;13.378;2023-05-16T04:42:59;19.77;;;15.73;;
12762;SDS011;6445;52.490;13.378;2023-05-16T04:45:24;21.55;;;16.80;;
12762;SDS011;6445;52.490;13.378;2023-05-16T04:47:49;22.85;;;15.75;;
12762;SDS011;6445;52.490;13.378;2023-05-16T04:50:15;21.98;;;16.92;;
12762;SDS011;6445;52.490;13.378;2023-05-16T04:52:41;25.90;;;16.55;;
12762;SDS011;6445;52.490;13.378;2023-05-16T04:55:07;21.73;;;16.13;;
12762;SDS011;6445;52.490;13.378;2023-05-16T04:57:33;25.55;;;16.58;;
12762;SDS011;6445;52.490;13.378;2023-05-16T04:59:58;23.95;;;16.92;;
12762;SDS011;6445;52.490;13.378;2023-05-16T05:02:23;24.50;;;16.42;;
12762;SDS011;6445;52.490;13.378;2023-05-16T05:04:49;21.48;;;17.02;;
12762;SDS011;6445;52.490;13.378;2023-05-16T05:07:14;25.50;;;17.55;;
12762;SDS011;6445;52.490;13.378;2023-05-16T05:09:39;22.73;;;17.67;;
12762;SDS011;6445;52.490;13.378;2023-05-16T05:12:06;24.35;;;17.15;;
12762;SDS011;6445;52.490;13.378;2023-05-16T05:14:32;26.60;;;17.15;;
12762;SDS011;6445;52.490;13.378;2023-05-16T05:16:58;20.00;;;16.73;;
12762;SDS011;6445;52.490;13.378;2023-05-16T05:19:24;19.45;;;16.35;;
12762;SDS011;6445;52.490;13.378;2023-05-16T05:21:49;21.95;;;17.02;;
12762;SDS011;6445;52.490;13.378;2023-05-16T05:24:14;22.88;;;17.55;;
12762;SDS011;6445;52.490;13.378;2023-05-16T05:26:40;21.98;;;17.30;;
12762;SDS011;6445;52.490;13.378;2023-05-16T05:29:05;22.80;;;18.27;;
12762;SDS011;6445;52.490;13.378;2023-05-16T05:31:30;22.23;;;17.73;;
12762;SDS011;6445;52.490;13.378;2023-05-16T05:33:57;25.77;;;17.77;;
12762;SDS011;6445;52.490;13.378;2023-05-16T05:36:23;26.00;;;17.65;;
12762;SDS011;6445;52.490;13.378;2023-05-16T05:38:48;23.60;;;17.50;;
12762;SDS011;6445;52.490;13.378;2023-05-16T05:41:13;23.65;;;17.58;;
12762;SDS011;6445;52.490;13.378;2023-05-16T05:43:38;23.98;;;17.02;;
12762;SDS011;6445;52.490;13.378;2023-05-16T05:46:04;25.55;;;16.65;;
12762;SDS011;6445;52.490;13.378;2023-05-16T05:48:29;21.90;;;15.32;;
12762;SDS011;6445;52.490;13.378;2023-05-16T05:50:56;19.77;;;14.68;;
12762;SDS011;6445;52.490;13.378;2023-05-16T05:53:21;20.73;;;15.15;;
12762;SDS011;6445;52.490;13.378;2023-05-16T05:55:46;20.55;;;14.68;;
12762;SDS011;6445;52.490;13.378;2023-05-16T05:58:12;19.80;;;14.35;;
12762;SDS011;6445;52.490;13.378;2023-05-16T06:00:37;20.40;;;14.10;;
12762;SDS011;6445;52.490;13.378;2023-05-16T06:03:02;18.52;;;12.73;;
12762;SDS011;6445;52.490;13.378;2023-05-16T06:05:28;18.00;;;12.80;;
12762;SDS011;6445;52.490;13.378;2023-05-16T06:07:53;14.95;;;12.32;;
12762;SDS011;6445;52.490;13.378;2023-05-16T06:10:18;14.85;;;11.20;;
12762;SDS011;6445;52.490;13.378;2023-05-16T06:12:43;18.67;;;11.82;;
12762;SDS011;6445;52.490;13.378;2023-05-16T06:15:09;15.88;;;10.88;;
12762;SDS011;6445;52.490;13.378;2023-05-16T06:17:34;13.88;;;10.93;;
12762;SDS011;6445;52.490;13.378;2023-05-16T06:20:00;14.30;;;11.05;;
12762;SDS011;6445;52.490;13.378;2023-05-16T06:22:25;14.18;;;10.95;;
12762;SDS011;6445;52.490;13.378;2023-05-16T06:24:50;26.83;;;16.50;;
12762;SDS011;6445;52.490;13.378;2023-05-16T06:27:16;14.30;;;10.70;;
12762;SDS011;6445;52.490;13.378;2023-05-16T06:29:41;21.73;;;11.00;;
12762;SDS011;6445;52.490;13.378;2023-05-16T06:32:06;13.57;;;10.82;;
12762;SDS011;6445;52.490;13.378;2023-05-16T06:34:31;13.20;;;10.88;;
12762;SDS011;6445;52.490;13.378;2023-05-16T06:36:57;16.80;;;11.20;;
12762;SDS011;6445;52.490;13.378;2023-05-16T06:39:22;14.25;;;11.20;;
12762;SDS011;6445;52.490;13.378;2023-05-16T06:41:48;14.80;;;10.60;;
12762;SDS011;6445;52.490;13.378;2023-05-16T06:44:13;13.25;;;9.75;;
12762;SDS011;6445;52.490;13.378;2023-05-16T06:46:38;12.60;;;10.23;;
12762;SDS011;6445;52.490;13.378;2023-05-16T06:49:04;12.27;;;10.95;;
12762;SDS011;6445;52.490;13.378;2023-05-16T06:51:30;14.05;;;9.50;;
12762;SDS011;6445;52.490;13.378;2023-05-16T06:53:56;14.40;;;10.02;;
12762;SDS011;6445;52.490;13.378;2023-05-16T06:56:21;12.68;;;9.05;;
12762;SDS011;6445;52.490;13.378;2023-05-16T06:58:47;12.90;;;8.77;;
12762;SDS011;6445;52.490;13.378;2023-05-16T07:01:13;11.02;;;8.65;;
12762;SDS011;6445;52.490;13.378;2023-05-16T07:03:38;10.23;;;8.82;;
12762;SDS011;6445;52.490;13.378;2023-05-16T07:06:04;10.55;;;8.40;;
12762;SDS011;6445;52.490;13.378;2023-05-16T07:08:29;12.45;;;7.70;;
12762;SDS011;6445;52.490;13.378;2023-05-16T07:10:54;10.10;;;7.97;;
12762;SDS011;6445;52.490;13.378;2023-05-16T07:13:20;13.65;;;7.88;;
12762;SDS011;6445;52.490;13.378;2023-05-16T07:15:45;8.70;;;7.43;;
12762;SDS011;6445;52.490;13.378;2023-05-16T07:18:10;8.50;;;7.10;;
12762;SDS011;6445;52.490;13.378;2023-05-16T07:20:35;9.85;;;6.63;;
12762;SDS011;6445;52.490;13.378;2023-05-16T07:23:01;8.65;;;6.20;;
12762;SDS011;6445;52.490;13.378;2023-05-16T07:25:26;8.02;;;6.40;;
12762;SDS011;6445;52.490;13.378;2023-05-16T07:27:51;10.27;;;6.60;;
12762;SDS011;6445;52.490;13.378;2023-05-16T07:30:17;14.63;;;6.85;;
12762;SDS011;6445;52.490;13.378;2023-05-16T07:32:42;9.60;;;6.20;;
12762;SDS011;6445;52.490;13.378;2023-05-16T07:35:07;9.95;;;5.93;;
12762;SDS011;6445;52.490;13.378;2023-05-16T07:37:33;7.78;;;6.35;;
12762;SDS011;6445;52.490;13.378;2023-05-16T07:39:59;8.48;;;6.35;;
12762;SDS011;6445;52.490;13.378;2023-05-16T07:42:25;9.38;;;5.78;;
12762;SDS011;6445;52.490;13.378;2023-05-16T07:44:50;8.82;;;5.85;;
12762;SDS011;6445;52.490;13.378;2023-05-16T07:47:15;8.57;;;6.07;;
12762;SDS011;6445;52.490;13.378;2023-05-16T07:49:41;15.82;;;9.43;;
12762;SDS011;6445;52.490;13.378;2023-05-16T07:52:06;7.82;;;5.90;;
12762;SDS011;6445;52.490;13.378;2023-05-16T07:54:33;10.55;;;5.65;;
12762;SDS011;6445;52.490;13.378;2023-05-16T07:56:59;9.07;;;5.88;;
12762;SDS011;6445;52.490;13.378;2023-05-16T07:59:25;18.48;;;12.40;;
12762;SDS011;6445;52.490;13.378;2023-05-16T08:01:50;11.02;;;5.65;;
12762;SDS011;6445;52.490;13.378;2023-05-16T08:04:15;6.72;;;4.68;;
12762;SDS011;6445;52.490;13.378;2023-05-16T08:06:41;7.47;;;4.50;;
12762;SDS011;6445;52.490;13.378;2023-05-16T08:09:06;5.60;;;4.05;;
12762;SDS011;6445;52.490;13.378;2023-05-16T08:11:32;8.77;;;3.92;;
12762;SDS011;6445;52.490;13.378;2023-05-16T08:13:58;6.93;;;4.68;;
12762;SDS011;6445;52.490;13.378;2023-05-16T08:16:23;7.55;;;4.03;;
12762;SDS011;6445;52.490;13.378;2023-05-16T08:18:48;9.95;;;3.90;;
12762;SDS011;6445;52.490;13.378;2023-05-16T08:21:13;7.95;;;4.35;;
12762;SDS011;6445;52.490;13.378;2023-05-16T08:23:40;6.47;;;4.18;;
12762;SDS011;6445;52.490;13.378;2023-05-16T08:26:05;5.28;;;4.25;;
12762;SDS011;6445;52.490;13.378;2023-05-16T08:28:31;8.65;;;4.10;;
12762;SDS011;6445;52.490;13.378;2023-05-16T08:30:57;6.28;;;4.32;;
12762;SDS011;6445;52.490;13.378;2023-05-16T08:33:22;7.25;;;4.13;;
12762;SDS011;6445;52.490;13.378;2023-05-16T08:35:49;6.88;;;4.00;;
12762;SDS011;6445;52.490;13.378;2023-05-16T08:38:16;7.35;;;4.65;;
12762;SDS011;6445;52.490;13.378;2023-05-16T08:40:41;8.13;;;4.13;;
12762;SDS011;6445;52.490;13.378;2023-05-16T08:43:07;7.43;;;4.00;;
12762;SDS011;6445;52.490;13.378;2023-05-16T08:45:32;5.78;;;3.63;;
12762;SDS011;6445;52.490;13.378;2023-05-16T08:47:59;5.40;;;3.75;;
12762;SDS011;6445;52.490;13.378;2023-05-16T08:50:25;5.28;;;3.20;;
12762;SDS011;6445;52.490;13.378;2023-05-16T08:52:55;5.35;;;3.13;;
12762;SDS011;6445;52.490;13.378;2023-05-16T08:55:20;4.45;;;3.08;;
12762;SDS011;6445;52.490;13.378;2023-05-16T08:57:48;8.00;;;3.40;;
12762;SDS011;6445;52.490;13.378;2023-05-16T09:00:15;5.63;;;3.20;;
12762;SDS011;6445;52.490;13.378;2023-05-16T09:02:43;6.28;;;2.90;;
12762;SDS011;6445;52.490;13.378;2023-05-16T09:05:10;6.03;;;2.85;;
12762;SDS011;6445;52.490;13.378;2023-05-16T09:07:36;5.15;;;2.75;;
12762;SDS011;6445;52.490;13.378;2023-05-16T09:10:02;6.28;;;3.10;;
12762;SDS011;6445;52.490;13.378;2023-05-16T09:12:29;7.75;;;3.03;;
12762;SDS011;6445;52.490;13.378;2023-05-16T09:14:55;8.25;;;2.90;;
12762;SDS011;6445;52.490;13.378;2023-05-16T09:17:20;8.02;;;2.75;;
12762;SDS011;6445;52.490;13.378;2023-05-16T09:19:46;5.35;;;2.60;;
12762;SDS011;6445;52.490;13.378;2023-05-16T09:22:14;11.65;;;3.22;;
12762;SDS011;6445;52.490;13.378;2023-05-16T09:24:43;5.53;;;2.80;;
12762;SDS011;6445;52.490;13.378;2023-05-16T09:27:10;5.65;;;2.67;;
12762;SDS011;6445;52.490;13.378;2023-05-16T09:29:40;4.05;;;2.30;;
12762;SDS011;6445;52.490;13.378;2023-05-16T09:37:15;5.35;;;2.58;;
12762;SDS011;6445;52.490;13.378;2023-05-16T09:39:44;6.10;;;2.35;;
12762;SDS011;6445;52.490;13.378;2023-05-16T09:42:14;7.15;;;2.63;;
12762;SDS011;6445;52.490;13.378;2023-05-16T09:44:41;7.20;;;2.95;;
12762;SDS011;6445;52.490;13.378;2023-05-16T09:47:13;5.75;;;2.30;;
12762;SDS011;6445;52.490;13.378;2023-05-16T09:49:40;8.98;;;2.67;;
12762;SDS011;6445;52.490;13.378;2023-05-16T09:52:05;5.68;;;2.50;;
12762;SDS011;6445;52.490;13.378;2023-05-16T09:54:31;4.97;;;2.53;;
12762;SDS011;6445;52.490;13.378;2023-05-16T09:56:57;6.28;;;2.45;;
12762;SDS011;6445;52.490;13.378;2023-05-16T09:59:24;6.10;;;2.30;;
12762;SDS011;6445;52.490;13.378;2023-05-16T10:01:49;9.70;;;2.38;;
12762;SDS011;6445;52.490;13.378;2023-05-16T10:04:17;10.48;;;3.25;;
12762;SDS011;6445;52.490;13.378;2023-05-16T10:06:42;11.32;;;3.30;;
12762;SDS011;6445;52.490;13.378;2023-05-16T10:09:10;6.72;;;2.80;;
12762;SDS011;6445;52.490;13.378;2023-05-16T10:11:37;11.05;;;3.13;;
12762;SDS011;6445;52.490;13.378;2023-05-16T10:14:05;11.18;;;2.83;;
12762;SDS011;6445;52.490;13.378;2023-05-16T10:16:32;6.90;;;2.83;;
12762;SDS011;6445;52.490;13.378;2023-05-16T10:18:59;6.80;;;2.97;;
12762;SDS011;6445;52.490;13.378;2023-05-16T10:21:27;4.90;;;2.72;;
12762;SDS011;6445;52.490;13.378;2023-05-16T10:23:54;7.68;;;3.08;;
12762;SDS011;6445;52.490;13.378;2023-05-16T10:26:22;4.47;;;2.45;;
12762;SDS011;6445;52.490;13.378;2023-05-16T10:28:49;7.28;;;3.05;;
12762;SDS011;6445;52.490;13.378;2023-05-16T10:31:15;4.07;;;2.72;;
12762;SDS011;6445;52.490;13.378;2023-05-16T10:33:42;10.00;;;3.30;;
12762;SDS011;6445;52.490;13.378;2023-05-16T10:36:09;7.93;;;4.20;;
12762;SDS011;6445;52.490;13.378;2023-05-16T10:38:36;6.75;;;3.30;;
12762;SDS011;6445;52.490;13.378;2023-05-16T10:41:02;9.65;;;3.33;;
12762;SDS011;6445;52.490;13.378;2023-05-16T10:43:29;8.48;;;2.92;;
12762;SDS011;6445;52.490;13.378;2023-05-16T10:46:05;8.85;;;3.03;;
12762;SDS011;6445;52.490;13.378;2023-05-16T10:48:34;11.05;;;2.92;;
12762;SDS011;6445;52.490;13.378;2023-05-16T10:51:01;7.07;;;2.63;;
12762;SDS011;6445;52.490;13.378;2023-05-16T10:58:23;12.63;;;3.13;;
12762;SDS011;6445;52.490;13.378;2023-05-16T11:00:48;13.07;;;3.38;;
12762;SDS011;6445;52.490;13.378;2023-05-16T11:03:23;13.75;;;3.10;;
12762;SDS011;6445;52.490;13.378;2023-05-16T11:05:52;12.02;;;3.45;;
12762;SDS011;6445;52.490;13.378;2023-05-16T11:08:18;10.30;;;3.17;;
12762;SDS011;6445;52.490;13.378;2023-05-16T11:10:43;11.35;;;3.25;;
12762;SDS011;6445;52.490;13.378;2023-05-16T11:13:08;25.48;;;15.25;;
12762;SDS011;6445;52.490;13.378;2023-05-16T11:15:34;8.27;;;3.10;;
12762;SDS011;6445;52.490;13.378;2023-05-16T11:18:03;10.35;;;2.90;;
12762;SDS011;6445;52.490;13.378;2023-05-16T11:20:33;9.38;;;3.03;;
12762;SDS011;6445;52.490;13.378;2023-05-16T11:25:56;10.65;;;2.22;;
12762;SDS011;6445;52.490;13.378;2023-05-16T11:28:24;6.22;;;2.47;;
12762;SDS011;6445;52.490;13.378;2023-05-16T11:30:51;6.90;;;2.47;;
12762;SDS011;6445;52.490;13.378;2023-05-16T11:33:20;9.32;;;2.60;;
12762;SDS011;6445;52.490;13.378;2023-05-16T11:35:59;8.27;;;2.47;;
12762;SDS011;6445;52.490;13.378;2023-05-16T11:38:29;8.25;;;3.35;;
12762;SDS011;6445;52.490;13.378;2023-05-16T11:41:05;12.18;;;3.05;;
12762;SDS011;6445;52.490;13.378;2023-05-16T11:43:39;9.30;;;2.97;;
12762;SDS011;6445;52.490;13.378;2023-05-16T11:46:05;7.68;;;2.50;;
12762;SDS011;6445;52.490;13.378;2023-05-16T11:48:31;8.65;;;2.50;;
12762;SDS011;6445;52.490;13.378;2023-05-16T11:50:57;7.60;;;2.65;;
12762;SDS011;6445;52.490;13.378;2023-05-16T11:53:22;6.95;;;2.70;;
12762;SDS011;6445;52.490;13.378;2023-05-16T11:55:48;8.40;;;2.40;;
12762;SDS011;6445;52.490;13.378;2023-05-16T11:58:16;6.45;;;2.20;;
12762;SDS011;6445;52.490;13.378;2023-05-16T12:00:48;7.60;;;2.45;;
12762;SDS011;6445;52.490;13.378;2023-05-16T12:03:14;10.35;;;4.90;;
12762;SDS011;6445;52.490;13.378;2023-05-16T12:05:53;8.63;;;2.10;;
12762;SDS011;6445;52.490;13.378;2023-05-16T12:08:21;8.98;;;2.22;;
12762;SDS011;6445;52.490;13.378;2023-05-16T12:10:48;7.38;;;2.70;;
12762;SDS011;6445;52.490;13.378;2023-05-16T12:13:15;8.85;;;2.67;;
12762;SDS011;6445;52.490;13.378;2023-05-16T12:15:41;5.72;;;2.40;;
12762;SDS011;6445;52.490;13.378;2023-05-16T12:18:07;7.90;;;2.50;;
12762;SDS011;6445;52.490;13.378;2023-05-16T12:20:33;8.55;;;2.45;;
12762;SDS011;6445;52.490;13.378;2023-05-16T12:22:58;12.15;;;2.22;;
12762;SDS011;6445;52.490;13.378;2023-05-16T12:25:33;9.00;;;2.70;;
12762;SDS011;6445;52.490;13.378;2023-05-16T12:28:06;5.63;;;2.28;;
12762;SDS011;6445;52.490;13.378;2023-05-16T12:30:32;7.15;;;2.55;;
12762;SDS011;6445;52.490;13.378;2023-05-16T12:33:01;7.22;;;1.98;;
12762;SDS011;6445;52.490;13.378;2023-05-16T12:35:33;9.52;;;2.20;;
12762;SDS011;6445;52.490;13.378;2023-05-16T12:38:04;9.15;;;2.75;;
12762;SDS011;6445;52.490;13.378;2023-05-16T12:40:31;11.35;;;2.55;;
12762;SDS011;6445;52.490;13.378;2023-05-16T12:42:57;9.90;;;2.97;;
12762;SDS011;6445;52.490;13.378;2023-05-16T12:45:22;8.98;;;2.13;;
12762;SDS011;6445;52.490;13.378;2023-05-16T12:47:48;8.20;;;2.70;;
12762;SDS011;6445;52.490;13.378;2023-05-16T12:50:14;10.82;;;2.75;;
12762;SDS011;6445;52.490;13.378;2023-05-16T12:52:51;12.23;;;2.75;;
12762;SDS011;6445;52.490;13.378;2023-05-16T12:55:18;8.40;;;2.10;;
12762;SDS011;6445;52.490;13.378;2023-05-16T12:57:45;6.82;;;2.40;;
12762;SDS011;6445;52.490;13.378;2023-05-16T13:00:14;6.75;;;2.03;;
12762;SDS011;6445;52.490;13.378;2023-05-16T13:02:43;8.52;;;2.50;;
12762;SDS011;6445;52.490;13.378;2023-05-16T13:05:08;7.05;;;2.13;;
12762;SDS011;6445;52.490;13.378;2023-05-16T13:07:34;5.75;;;2.03;;
12762;SDS011;6445;52.490;13.378;2023-05-16T13:10:00;6.45;;;1.70;;
12762;SDS011;6445;52.490;13.378;2023-05-16T13:12:26;9.07;;;2.35;;
12762;SDS011;6445;52.490;13.378;2023-05-16T13:14:52;8.55;;;2.35;;
12762;SDS011;6445;52.490;13.378;2023-05-16T13:17:17;9.60;;;2.70;;
12762;SDS011;6445;52.490;13.378;2023-05-16T13:19:43;10.30;;;2.60;;
12762;SDS011;6445;52.490;13.378;2023-05-16T13:22:08;8.32;;;3.13;;
12762;SDS011;6445;52.490;13.378;2023-05-16T13:24:33;12.70;;;3.25;;
12762;SDS011;6445;52.490;13.378;2023-05-16T13:26:59;12.48;;;2.70;;
12762;SDS011;6445;52.490;13.378;2023-05-16T13:29:24;5.95;;;2.45;;
12762;SDS011;6445;52.490;13.378;2023-05-16T13:31:49;10.70;;;2.83;;
12762;SDS011;6445;52.490;13.378;2023-05-16T13:34:17;5.38;;;2.00;;
12762;SDS011;6445;52.490;13.378;2023-05-16T13:36:42;7.25;;;2.65;;
12762;SDS011;6445;52.490;13.378;2023-05-16T13:39:10;9.52;;;2.47;;
12762;SDS011;6445;52.490;13.378;2023-05-16T13:41:36;6.82;;;2.30;;
12762;SDS011;6445;52.490;13.378;2023-05-16T13:44:02;4.20;;;2.40;;
12762;SDS011;6445;52.490;13.378;2023-05-16T13:46:28;8.63;;;2.58;;
12762;SDS011;6445;52.490;13.378;2023-05-16T13:48:53;9.80;;;2.97;;
12762;SDS011;6445;52.490;13.378;2023-05-16T13:51:19;7.97;;;2.55;;
12762;SDS011;6445;52.490;13.378;2023-05-16T13:53:44;10.13;;;2.40;;
12762;SDS011;6445;52.490;13.378;2023-05-16T13:56:09;8.23;;;2.33;;
12762;SDS011;6445;52.490;13.378;2023-05-16T13:58:35;5.00;;;1.70;;
12762;SDS011;6445;52.490;13.378;2023-05-16T14:01:00;6.80;;;2.15;;
12762;SDS011;6445;52.490;13.378;2023-05-16T14:03:26;8.80;;;2.25;;
12762;SDS011;6445;52.490;13.378;2023-05-16T14:05:51;7.50;;;2.15;;
12762;SDS011;6445;52.490;13.378;2023-05-16T14:08:16;11.13;;;4.28;;
12762;SDS011;6445;52.490;13.378;2023-05-16T14:10:42;6.40;;;2.15;;
12762;SDS011;6445;52.490;13.378;2023-05-16T14:13:07;5.45;;;1.90;;
12762;SDS011;6445;52.490;13.378;2023-05-16T14:15:32;8.07;;;2.33;;
12762;SDS011;6445;52.490;13.378;2023-05-16T14:17:57;10.82;;;2.22;;
12762;SDS011;6445;52.490;13.378;2023-05-16T14:20:23;8.18;;;2.30;;
12762;SDS011;6445;52.490;13.378;2023-05-16T14:22:49;7.32;;;1.90;;
12762;SDS011;6445;52.490;13.378;2023-05-16T14:25:14;8.75;;;5.07;;
12762;SDS011;6445;52.490;13.378;2023-05-16T14:27:39;10.65;;;2.33;;
12762;SDS011;6445;52.490;13.378;2023-05-16T14:30:05;4.72;;;1.80;;
12762;SDS011;6445;52.490;13.378;2023-05-16T14:32:32;4.03;;;1.55;;
12762;SDS011;6445;52.490;13.378;2023-05-16T14:34:57;6.38;;;1.65;;
12762;SDS011;6445;52.490;13.378;2023-05-16T14:37:23;7.82;;;2.92;;
12762;SDS011;6445;52.490;13.378;2023-05-16T14:39:48;5.80;;;1.90;;
12762;SDS011;6445;52.490;13.378;2023-05-16T14:42:14;6.65;;;1.80;;
12762;SDS011;6445;52.490;13.378;2023-05-16T14:44:40;6.55;;;1.70;;
12762;SDS011;6445;52.490;13.378;2023-05-16T14:47:05;5.88;;;1.85;;
12762;SDS011;6445;52.490;13.378;2023-05-16T14:49:30;6.63;;;2.10;;
12762;SDS011;6445;52.490;13.378;2023-05-16T14:51:56;7.63;;;2.00;;
12762;SDS011;6445;52.490;13.378;2023-05-16T14:54:21;4.95;;;2.17;;